Time;durP1;ratioP1;P1;durP2;ratioP2;P2;SDS_P1;SDS_P2;PMS_P1;PMS_P2;Temp;Humidity;BMP_temperature;BMP_pressure;BME280_temperature;BME280_humidity;BME280_pressure;Samples;Min_cycle;Max_cycle;Signal;HPM_P1;HPM_P2
2021/05/05 00:02:07;;;;;;;0.80;0.70;;;;;;;;;;5070099;28;20581;-61
2021/05/05 00:04:33;;;;;;;1.47;0.53;;;12.10;1.00;;;;;;5070055;28;20189;-61
2021/05/05 00:06:59;;;;;;;1.10;0.67;;;12.20;1.00;;;;;;5070102;28;20867;-61
2021/05/05 00:09:25;;;;;;;0.83;0.60;;;12.00;1.00;;;;;;5071362;28;20185;-61
2021/05/05 00:11:51;;;;;;;1.03;0.53;;;12.10;1.00;;;;;;5077914;28;20847;-60
2021/05/05 00:14:18;;;;;;;2.50;0.67;;;12.10;1.00;;;;;;5082304;28;20218;-61
2021/05/05 00:16:45;;;;;;;4.20;0.90;;;12.10;1.00;;;;;;5069925;28;20503;-61
2021/05/05 00:19:11;;;;;;;1.07;0.97;;;12.00;1.00;;;;;;5069851;28;20527;-61
2021/05/05 00:21:37;;;;;;;3.67;1.07;;;12.00;1.00;;;;;;5083353;28;20444;-61
2021/05/05 00:24:03;;;;;;;2.30;0.77;;;12.00;1.00;;;;;;5069070;28;20437;-61
2021/05/05 00:26:29;;;;;;;1.23;0.77;;;12.00;1.00;;;;;;5078292;28;20210;-61
2021/05/05 00:28:54;;;;;;;2.53;0.90;;;12.00;1.00;;;;;;5085642;28;21002;-61
2021/05/05 00:31:20;;;;;;;0.93;0.80;;;11.90;1.00;;;;;;5073946;28;20195;-61
2021/05/05 00:33:46;;;;;;;2.43;1.23;;;11.90;1.00;;;;;;5071387;28;20325;-60
2021/05/05 00:36:11;;;;;;;1.63;0.90;;;11.90;1.00;;;;;;5077509;28;20201;-60
2021/05/05 00:38:37;;;;;;;3.23;0.80;;;11.90;1.00;;;;;;5073267;28;20191;-61
2021/05/05 00:41:07;;;;;;;2.70;0.70;;;12.00;1.00;;;;;;5073165;28;20195;-60
2021/05/05 00:43:33;;;;;;;2.40;0.80;;;12.00;1.00;;;;;;5073486;28;20191;-61
2021/05/05 00:45:59;;;;;;;0.87;0.73;;;12.00;1.00;;;;;;5071527;28;21041;-61
2021/05/05 00:48:25;;;;;;;3.97;0.87;;;12.00;1.00;;;;;;5069943;28;20476;-61
2021/05/05 00:50:50;;;;;;;1.87;1.10;;;11.90;1.00;;;;;;5072844;28;20833;-61
2021/05/05 00:53:16;;;;;;;2.30;1.10;;;11.80;1.00;;;;;;5072456;28;20201;-61
2021/05/05 00:55:41;;;;;;;2.40;0.70;;;11.90;1.00;;;;;;5072859;28;20197;-61
2021/05/05 00:58:08;;;;;;;1.80;1.17;;;11.80;1.00;;;;;;5088784;28;20193;-61
2021/05/05 01:00:34;;;;;;;1.90;0.80;;;11.80;1.00;;;;;;5073773;28;20186;-61
2021/05/05 01:03:00;;;;;;;1.77;0.87;;;11.80;1.00;;;;;;5072444;28;20448;-61
2021/05/05 01:05:25;;;;;;;1.37;0.90;;;11.80;1.00;;;;;;5072520;28;20186;-62
2021/05/05 01:07:51;;;;;;;4.57;1.00;;;11.70;1.00;;;;;;5073034;28;20710;-61
2021/05/05 01:10:17;;;;;;;2.40;1.00;;;11.70;1.00;;;;;;5071754;28;20193;-61
2021/05/05 01:12:42;;;;;;;2.97;1.20;;;11.70;1.00;;;;;;5071942;28;20194;-61
2021/05/05 01:15:10;;;;;;;2.47;0.90;;;11.70;1.00;;;;;;5072344;28;20179;-61
2021/05/05 01:17:36;;;;;;;2.90;1.00;;;11.70;1.00;;;;;;5070296;28;20187;-61
2021/05/05 01:20:03;;;;;;;2.00;0.67;;;11.70;1.00;;;;;;5068311;28;20456;-61
2021/05/05 01:22:29;;;;;;;1.83;0.97;;;11.70;1.00;;;;;;5072809;28;20476;-61
2021/05/05 01:24:54;;;;;;;1.73;0.90;;;11.60;1.00;;;;;;5072346;28;20937;-61
2021/05/05 01:27:20;;;;;;;3.10;1.50;;;11.60;1.00;;;;;;5082263;28;20731;-61
2021/05/05 01:29:48;;;;;;;1.30;1.20;;;11.60;1.00;;;;;;5070519;28;20761;-61
2021/05/05 01:32:14;;;;;;;2.17;1.00;;;11.60;1.00;;;;;;5072425;28;20460;-62
2021/05/05 01:34:41;;;;;;;2.13;1.10;;;11.60;1.00;;;;;;5075844;28;20798;-61
2021/05/05 01:37:07;;;;;;;2.70;1.00;;;11.60;1.00;;;;;;5070558;28;20455;-61
2021/05/05 01:39:34;;;;;;;2.27;1.40;;;11.60;1.00;;;;;;5083880;28;20448;-61
2021/05/05 01:42:00;;;;;;;2.67;1.13;;;11.50;1.00;;;;;;5076782;28;20445;-61
2021/05/05 01:44:32;;;;;;;2.80;0.97;;;11.50;1.00;;;;;;5073431;28;20794;-61
2021/05/05 01:46:58;;;;;;;4.60;1.00;;;11.60;1.00;;;;;;5072988;28;20471;-61
2021/05/05 01:49:25;;;;;;;2.20;0.93;;;11.50;1.00;;;;;;5067756;28;20468;-61
2021/05/05 01:51:53;;;;;;;2.57;1.37;;;11.40;1.00;;;;;;5072201;28;20189;-61
2021/05/05 01:54:18;;;;;;;2.20;1.10;;;11.40;1.00;;;;;;5069099;28;20440;-61
2021/05/05 01:56:44;;;;;;;2.47;1.30;;;11.50;1.00;;;;;;5089737;28;20437;-60
2021/05/05 01:59:10;;;;;;;3.83;1.63;;;11.40;1.00;;;;;;5073099;28;20368;-61
2021/05/05 02:01:35;;;;;;;5.63;1.63;;;11.40;1.00;;;;;;5070643;28;20627;-60
2021/05/05 02:04:02;;;;;;;3.00;2.33;;;11.50;1.00;;;;;;5071031;28;20198;-61
2021/05/05 02:06:29;;;;;;;1.97;1.20;;;11.50;1.00;;;;;;5072001;28;20240;-60
2021/05/05 02:08:56;;;;;;;4.60;1.50;;;11.50;1.00;;;;;;5071977;28;20844;-61
2021/05/05 02:11:22;;;;;;;2.77;1.30;;;11.50;1.00;;;;;;5063648;28;20531;-61
2021/05/05 02:13:47;;;;;;;1.53;1.17;;;11.30;1.00;;;;;;5059831;28;20459;-60
2021/05/05 02:16:14;;;;;;;3.67;1.23;;;10.90;1.00;;;;;;5069053;28;20199;-61
2021/05/05 02:18:39;;;;;;;4.07;1.60;;;11.40;1.00;;;;;;5068785;28;20964;-61
2021/05/05 02:21:06;;;;;;;1.80;1.57;;;11.30;1.00;;;;;;5067521;28;20540;-61
2021/05/05 02:23:31;;;;;;;2.03;1.03;;;11.30;1.00;;;;;;5071979;28;20198;-61
2021/05/05 02:25:57;;;;;;;3.40;1.37;;;11.20;1.00;;;;;;5071583;28;20463;-61
2021/05/05 02:28:22;;;;;;;3.23;1.93;;;11.30;1.00;;;;;;5070199;28;20357;-60
2021/05/05 02:30:48;;;;;;;2.80;1.30;;;11.30;1.00;;;;;;5075779;28;20713;-61
2021/05/05 02:33:13;;;;;;;2.00;1.10;;;11.10;1.00;;;;;;5091501;28;20555;-61
2021/05/05 02:35:39;;;;;;;5.20;1.20;;;11.20;1.00;;;;;;5073694;28;20720;-61
2021/05/05 02:38:04;;;;;;;1.03;0.80;;;11.20;1.00;;;;;;5088228;28;20561;-61
2021/05/05 02:40:30;;;;;;;3.90;1.50;;;11.10;1.00;;;;;;5074081;28;20191;-61
2021/05/05 02:42:57;;;;;;;5.03;1.37;;;11.20;1.00;;;;;;5069716;28;20195;-61
2021/05/05 02:45:23;;;;;;;2.67;1.30;;;11.10;1.00;;;;;;5074395;28;20672;-61
2021/05/05 02:47:49;;;;;;;2.60;1.33;;;11.20;1.00;;;;;;5073014;28;20565;-60
2021/05/05 02:50:14;;;;;;;2.03;1.07;;;11.20;1.00;;;;;;5070124;28;20186;-61
2021/05/05 02:52:40;;;;;;;2.83;1.20;;;11.20;1.00;;;;;;5069001;28;20344;-61
2021/05/05 02:55:07;;;;;;;2.70;1.10;;;11.10;1.00;;;;;;5071137;28;20202;-60
2021/05/05 02:57:33;;;;;;;2.77;1.43;;;11.10;1.00;;;;;;5070823;28;20241;-60
2021/05/05 02:59:59;;;;;;;5.83;1.23;;;11.10;1.00;;;;;;5069013;28;20452;-60
2021/05/05 03:02:24;;;;;;;2.87;1.03;;;11.10;1.00;;;;;;5067239;28;20213;-60
2021/05/05 03:04:51;;;;;;;1.87;1.10;;;11.20;1.00;;;;;;5070057;28;20943;-60
2021/05/05 03:07:18;;;;;;;4.40;1.43;;;11.20;1.00;;;;;;5067124;28;20686;-61
2021/05/05 03:09:43;;;;;;;2.90;1.20;;;11.10;1.00;;;;;;5070702;28;20449;-60
2021/05/05 03:12:09;;;;;;;1.80;1.00;;;11.20;1.00;;;;;;5083106;28;20461;-60
2021/05/05 03:14:34;;;;;;;2.87;1.10;;;11.30;1.00;;;;;;5088412;28;20535;-61
2021/05/05 03:17:00;;;;;;;3.17;1.50;;;11.30;1.00;;;;;;5069960;28;20241;-61
2021/05/05 03:19:27;;;;;;;2.83;0.87;;;11.40;1.00;;;;;;5076119;28;20370;-61
2021/05/05 03:21:52;;;;;;;1.87;1.13;;;11.40;1.00;;;;;;5070643;28;20448;-61
2021/05/05 03:24:18;;;;;;;5.00;1.20;;;11.40;1.00;;;;;;5069096;28;20726;-61
2021/05/05 03:26:44;;;;;;;4.07;1.30;;;11.40;1.00;;;;;;5081391;28;20304;-60
2021/05/05 03:29:09;;;;;;;1.70;0.90;;;11.40;1.00;;;;;;5090864;28;20226;-61
2021/05/05 03:31:35;;;;;;;3.33;1.10;;;11.40;1.00;;;;;;5078332;28;20261;-61
2021/05/05 03:34:03;;;;;;;4.90;1.20;;;11.40;1.00;;;;;;5067818;28;20205;-61
2021/05/05 03:36:28;;;;;;;1.80;1.10;;;11.40;1.00;;;;;;5078207;28;20476;-61
2021/05/05 03:38:54;;;;;;;1.27;0.77;;;11.40;1.00;;;;;;5077387;28;20510;-61
2021/05/05 03:41:19;;;;;;;1.57;1.20;;;11.50;1.00;;;;;;5086251;28;20182;-61
2021/05/05 03:43:45;;;;;;;2.13;1.57;;;11.60;1.00;;;;;;5076491;28;20186;-61
2021/05/05 03:46:11;;;;;;;2.30;1.33;;;11.50;1.00;;;;;;5070941;28;20676;-61
2021/05/05 03:48:36;;;;;;;4.77;1.20;;;11.50;1.00;;;;;;5073463;28;20186;-61
2021/05/05 03:51:03;;;;;;;3.17;1.70;;;11.50;1.00;;;;;;5074211;28;20189;-61
2021/05/05 03:53:29;;;;;;;3.03;1.10;;;11.60;1.00;;;;;;5069996;28;20181;-61
2021/05/05 03:55:55;;;;;;;1.23;1.07;;;11.60;1.00;;;;;;5070507;28;20457;-61
2021/05/05 03:58:21;;;;;;;2.93;1.30;;;11.50;1.00;;;;;;5074775;28;20444;-61
2021/05/05 04:00:46;;;;;;;2.00;1.00;;;11.60;1.00;;;;;;5068625;28;20260;-61
2021/05/05 04:03:12;;;;;;;2.47;1.10;;;11.80;1.00;;;;;;5080902;28;20213;-61
2021/05/05 04:05:37;;;;;;;3.97;1.33;;;11.60;1.00;;;;;;5075878;28;20197;-61
2021/05/05 04:08:04;;;;;;;3.70;0.90;;;11.60;1.00;;;;;;5077320;28;20196;-61
2021/05/05 04:10:29;;;;;;;3.10;1.57;;;11.60;1.00;;;;;;5069771;28;20183;-61
2021/05/05 04:12:55;;;;;;;2.03;0.97;;;11.70;1.00;;;;;;5070051;28;20464;-60
2021/05/05 04:15:21;;;;;;;2.30;1.00;;;11.70;1.00;;;;;;5074273;28;20181;-68
2021/05/05 04:17:46;;;;;;;1.40;1.30;;;11.60;1.00;;;;;;5069567;28;20226;-64
2021/05/05 04:20:14;;;;;;;1.20;0.87;;;11.50;1.00;;;;;;5073731;28;20205;-63
2021/05/05 04:22:39;;;;;;;3.60;1.33;;;11.50;1.00;;;;;;5087535;28;20188;-63
2021/05/05 04:25:06;;;;;;;4.43;1.30;;;11.60;1.00;;;;;;5087701;28;20430;-63
2021/05/05 04:27:32;;;;;;;0.90;0.90;;;11.70;1.00;;;;;;5075864;28;20538;-64
2021/05/05 04:29:57;;;;;;;6.67;1.50;;;11.60;1.00;;;;;;5080457;28;20520;-64
2021/05/05 04:32:23;;;;;;;2.23;1.50;;;11.60;1.00;;;;;;5089753;28;20651;-60
2021/05/05 04:34:49;;;;;;;1.73;1.30;;;11.60;1.00;;;;;;5082461;28;20327;-60
2021/05/05 04:37:14;;;;;;;3.60;1.23;;;11.70;1.00;;;;;;5086722;28;20225;-60
2021/05/05 04:39:40;;;;;;;1.33;1.00;;;11.70;1.00;;;;;;5081076;28;20187;-60
2021/05/05 04:42:07;;;;;;;3.07;1.43;;;11.80;1.00;;;;;;5075161;28;20182;-60
2021/05/05 04:44:33;;;;;;;5.03;1.43;;;11.90;1.00;;;;;;5069400;28;20283;-60
2021/05/05 04:46:59;;;;;;;1.60;1.20;;;12.00;1.00;;;;;;5070084;28;20810;-60
2021/05/05 04:49:27;;;;;;;1.47;1.27;;;12.30;1.00;;;;;;5069584;28;20486;-60
2021/05/05 04:51:53;;;;;;;2.40;1.10;;;12.30;1.00;;;;;;5075380;28;20604;-61
2021/05/05 04:54:19;;;;;;;2.80;1.73;;;12.40;1.00;;;;;;5065572;28;20536;-60
2021/05/05 04:56:44;;;;;;;3.60;1.10;;;12.40;1.00;;;;;;5083424;28;20339;-60
2021/05/05 04:59:10;;;;;;;4.20;1.20;;;12.40;1.00;;;;;;5068700;28;20552;-60
2021/05/05 05:01:35;;;;;;;1.57;1.20;;;12.40;1.00;;;;;;5069175;28;20195;-60
2021/05/05 05:04:01;;;;;;;3.10;1.10;;;12.40;1.00;;;;;;5068700;28;20191;-60
2021/05/05 05:06:27;;;;;;;1.80;1.00;;;12.30;1.00;;;;;;5069402;28;20218;-60
2021/05/05 05:08:53;;;;;;;4.53;1.60;;;12.30;1.00;;;;;;5068358;28;20198;-60
2021/05/05 05:11:18;;;;;;;1.47;1.00;;;12.50;1.00;;;;;;5068244;28;20223;-61
2021/05/05 05:13:44;;;;;;;4.50;1.53;;;12.60;1.00;;;;;;5067436;28;20446;-59
2021/05/05 05:16:10;;;;;;;7.50;1.37;;;15.10;1.00;;;;;;5070098;28;20599;-59
2021/05/05 05:18:35;;;;;;;3.43;1.37;;;12.90;1.00;;;;;;5071342;28;20191;-60
2021/05/05 05:21:03;;;;;;;4.00;2.20;;;13.10;1.00;;;;;;5091309;28;20179;-60
2021/05/05 05:23:29;;;;;;;2.37;1.30;;;13.00;1.00;;;;;;5073108;28;20206;-60
2021/05/05 05:25:56;;;;;;;7.30;1.57;;;12.70;1.00;;;;;;5072270;28;20953;-60
2021/05/05 05:28:21;;;;;;;2.43;1.13;;;12.80;1.00;;;;;;5072930;28;20175;-60
2021/05/05 05:30:48;;;;;;;2.30;1.33;;;12.90;1.00;;;;;;5089257;28;20509;-60
2021/05/05 05:33:14;;;;;;;3.33;1.43;;;12.80;1.00;;;;;;5073039;28;20586;-61
2021/05/05 05:35:39;;;;;;;3.03;1.50;;;12.70;1.00;;;;;;5085052;28;20473;-60
2021/05/05 05:38:05;;;;;;;5.40;2.10;;;12.80;1.00;;;;;;5092709;28;20663;-60
2021/05/05 05:40:30;;;;;;;3.27;1.13;;;12.90;1.00;;;;;;5092927;28;20217;-60
2021/05/05 05:42:56;;;;;;;3.37;2.43;;;12.80;1.00;;;;;;5091332;28;20227;-59
2021/05/05 05:45:22;;;;;;;1.87;1.40;;;12.80;1.00;;;;;;5086287;28;20179;-60
2021/05/05 05:47:47;;;;;;;2.77;1.33;;;12.80;1.00;;;;;;5071036;28;20203;-60
2021/05/05 05:50:14;;;;;;;2.90;1.70;;;12.80;1.00;;;;;;5072134;28;20305;-60
2021/05/05 05:52:40;;;;;;;2.70;2.10;;;12.90;1.00;;;;;;5071276;28;20171;-60
2021/05/05 05:55:08;;;;;;;2.43;1.20;;;13.10;1.00;;;;;;5070457;28;20445;-60
2021/05/05 05:57:33;;;;;;;2.67;1.33;;;13.10;1.00;;;;;;5076090;28;20436;-60
2021/05/05 05:59:59;;;;;;;1.93;1.23;;;13.20;1.00;;;;;;5090927;28;20957;-60
2021/05/05 06:02:26;;;;;;;1.40;1.10;;;13.20;1.00;;;;;;5071789;28;20632;-60
2021/05/05 06:04:51;;;;;;;1.70;1.30;;;13.20;1.00;;;;;;5076919;28;20191;-60
2021/05/05 06:07:17;;;;;;;7.13;1.43;;;13.20;1.00;;;;;;5092337;28;20464;-60
2021/05/05 06:09:43;;;;;;;3.50;1.33;;;13.20;1.00;;;;;;5083883;28;20575;-60
2021/05/05 06:12:08;;;;;;;3.97;1.80;;;13.10;1.00;;;;;;5071986;28;20629;-60
2021/05/05 06:14:34;;;;;;;4.43;1.27;;;13.20;1.00;;;;;;5069029;28;20225;-60
2021/05/05 06:17:00;;;;;;;2.57;1.53;;;13.20;1.00;;;;;;5073380;28;20194;-60
2021/05/05 06:19:26;;;;;;;2.17;1.30;;;12.80;1.00;;;;;;5071125;28;20223;-60
2021/05/05 06:21:52;;;;;;;5.83;2.37;;;;;;;;;;5071124;28;20493;-60
2021/05/05 06:24:17;;;;;;;1.60;1.03;;;12.80;1.00;;;;;;5082781;28;20190;-60
2021/05/05 06:26:43;;;;;;;1.27;1.10;;;12.90;1.00;;;;;;5085122;28;20476;-60
2021/05/05 06:29:08;;;;;;;2.53;1.00;;;13.00;1.00;;;;;;5071442;28;20214;-60
2021/05/05 06:31:37;;;;;;;2.67;1.00;;;13.10;1.00;;;;;;5071403;28;20191;-59
2021/05/05 06:34:03;;;;;;;5.57;1.40;;;13.20;1.00;;;;;;5071672;28;20175;-60
2021/05/05 06:36:29;;;;;;;2.27;1.23;;;13.40;1.00;;;;;;5071210;28;20539;-59
2021/05/05 06:38:54;;;;;;;2.87;1.17;;;13.40;1.00;;;;;;5071622;28;20190;-60
2021/05/05 06:41:20;;;;;;;4.10;1.33;;;13.50;1.00;;;;;;5071266;28;20244;-60
2021/05/05 06:43:45;;;;;;;2.43;1.03;;;13.50;1.00;;;;;;5069870;28;20579;-59
2021/05/05 06:46:11;;;;;;;2.00;1.03;;;13.70;1.00;;;;;;5077009;28;20669;-59
2021/05/05 06:48:37;;;;;;;3.00;1.67;;;13.60;1.00;;;;;;5069345;28;20179;-59
2021/05/05 06:51:02;;;;;;;2.57;1.53;;;13.70;1.00;;;;;;5070341;28;20949;-59
2021/05/05 06:53:29;;;;;;;6.57;1.50;;;13.70;1.00;;;;;;5070850;28;20584;-65
2021/05/05 06:55:54;;;;;;;4.30;1.37;;;14.00;1.00;;;;;;5072826;28;20644;-63
2021/05/05 06:58:20;;;;;;;2.50;1.43;;;14.00;1.00;;;;;;5087151;28;20443;-65
2021/05/05 07:00:45;;;;;;;3.47;1.40;;;14.10;1.00;;;;;;5073487;28;20175;-64
2021/05/05 07:03:14;;;;;;;2.37;1.53;;;14.20;1.00;;;;;;5079931;28;20179;-65
2021/05/05 07:05:40;;;;;;;1.73;1.33;;;14.70;1.00;;;;;;5080765;28;20183;-65
2021/05/05 07:08:06;;;;;;;3.57;1.23;;;14.20;1.00;;;;;;5089971;28;20517;-62
2021/05/05 07:10:31;;;;;;;4.03;2.40;;;14.20;1.00;;;;;;5086141;28;20199;-63
2021/05/05 07:12:57;;;;;;;3.27;1.20;;;14.20;1.00;;;;;;5070915;28;20469;-62
2021/05/05 07:15:22;;;;;;;2.93;1.23;;;14.10;1.00;;;;;;5069163;28;20175;-63
2021/05/05 07:17:48;;;;;;;1.67;0.90;;;13.90;1.00;;;;;;5069892;28;20229;-63
2021/05/05 07:20:15;;;;;;;4.20;1.33;;;13.90;1.00;;;;;;5070443;28;20218;-63
2021/05/05 07:22:41;;;;;;;2.30;1.20;;;;;;;;;;5070689;28;20191;-63
2021/05/05 07:25:07;;;;;;;1.20;1.10;;;13.50;1.00;;;;;;5079886;28;20472;-63
2021/05/05 07:27:33;;;;;;;2.40;1.17;;;13.50;1.00;;;;;;5078384;28;20515;-64
2021/05/05 07:29:59;;;;;;;2.30;1.10;;;13.80;1.00;;;;;;5085838;28;20469;-62
2021/05/05 07:32:25;;;;;;;2.57;1.27;;;13.30;1.00;;;;;;5072354;28;20186;-62
2021/05/05 07:34:51;;;;;;;6.67;1.60;;;13.30;1.00;;;;;;5072086;28;20441;-63
2021/05/05 07:37:30;;;;;;;3.17;1.30;;;13.60;1.00;;;;;;5082621;28;20457;-61
2021/05/05 07:48:01;;;;;;;1.80;1.40;;;13.60;1.00;;;;;;5079879;28;20466;-61
2021/05/05 07:50:26;;;;;;;1.93;1.40;;;13.50;1.00;;;;;;5069358;28;20187;-61
2021/05/05 07:52:52;;;;;;;2.50;1.33;;;13.30;1.00;;;;;;5068869;28;20535;-63
2021/05/05 07:55:17;;;;;;;3.83;1.30;;;13.40;1.00;;;;;;5075037;28;20219;-62
2021/05/05 07:57:43;;;;;;;1.70;0.97;;;13.50;1.00;;;;;;5078237;28;20633;-62
2021/05/05 08:00:11;;;;;;;3.43;1.30;;;13.60;1.00;;;;;;5072677;28;20649;-62
2021/05/05 08:02:36;;;;;;;2.43;1.40;;;13.50;1.00;;;;;;5069639;28;20203;-62
2021/05/05 08:05:04;;;;;;;4.03;1.40;;;13.60;1.00;;;;;;5073468;28;20448;-62
2021/05/05 08:07:30;;;;;;;3.23;1.43;;;13.80;1.00;;;;;;5089138;28;20202;-62
2021/05/05 08:09:55;;;;;;;1.23;1.10;;;13.90;1.00;;;;;;5078603;28;20441;-61
2021/05/05 08:12:21;;;;;;;3.20;1.60;;;13.90;1.00;;;;;;5068757;28;20433;-61
2021/05/05 08:14:47;;;;;;;2.90;2.00;;;14.00;1.00;;;;;;5067571;28;20184;-61
2021/05/05 08:17:13;;;;;;;1.93;1.40;;;14.40;1.00;;;;;;5073822;28;20183;-61
2021/05/05 08:19:38;;;;;;;2.43;1.23;;;14.40;1.00;;;;;;5083744;28;20838;-62
2021/05/05 08:22:04;;;;;;;2.33;1.20;;;14.30;1.00;;;;;;5071270;28;20188;-61
2021/05/05 08:24:30;;;;;;;1.90;1.57;;;14.10;1.00;;;;;;5069172;28;20190;-63
2021/05/05 08:26:58;;;;;;;3.47;2.20;;;14.10;1.00;;;;;;5069631;28;20470;-63
2021/05/05 08:29:26;;;;;;;3.90;1.53;;;14.30;1.00;;;;;;5070790;28;20211;-63
2021/05/05 08:31:52;;;;;;;2.07;1.10;;;14.70;1.00;;;;;;5085049;28;20452;-63
2021/05/05 08:34:18;;;;;;;4.00;1.50;;;15.00;1.00;;;;;;5089853;28;20433;-63
2021/05/05 08:36:43;;;;;;;2.93;1.60;;;15.20;1.00;;;;;;5088796;28;20207;-62
2021/05/05 08:39:09;;;;;;;1.77;1.10;;;14.80;1.00;;;;;;5084268;28;20203;-62
2021/05/05 08:41:37;;;;;;;2.90;1.30;;;14.30;1.00;;;;;;5069731;28;20526;-62
2021/05/05 08:44:03;;;;;;;2.10;1.60;;;14.00;1.00;;;;;;5068757;28;20214;-61
2021/05/05 08:46:29;;;;;;;1.90;1.43;;;13.80;1.00;;;;;;5068368;28;20464;-62
2021/05/05 08:48:55;;;;;;;2.10;1.43;;;13.80;1.00;;;;;;5066062;28;20434;-62
2021/05/05 08:51:20;;;;;;;2.40;1.20;;;13.70;1.00;;;;;;5072691;28;20198;-62
2021/05/05 08:53:46;;;;;;;3.03;1.73;;;13.30;1.00;;;;;;5083797;28;20189;-61
2021/05/05 08:56:12;;;;;;;1.37;1.27;;;12.90;1.00;;;;;;5081478;28;20544;-61
2021/05/05 08:58:37;;;;;;;2.10;1.20;;;13.20;1.00;;;;;;5077382;28;20189;-61
2021/05/05 09:01:05;;;;;;;3.97;1.43;;;13.40;1.00;;;;;;5079036;28;20207;-61
2021/05/05 09:03:40;;;;;;;2.80;1.40;;;13.60;1.00;;;;;;5089206;28;20175;-62
2021/05/05 09:06:05;;;;;;;3.07;1.43;;;13.70;1.00;;;;;;5075197;28;20772;-62
2021/05/05 09:08:32;;;;;;;1.70;1.10;;;13.70;1.00;;;;;;5073154;28;20498;-61
2021/05/05 09:11:04;;;;;;;5.30;1.70;;;13.70;1.00;;;;;;5077659;28;20708;-61
2021/05/05 09:13:48;;;;;;;2.47;1.30;;;13.80;1.00;;;;;;5072037;28;20441;-63
2021/05/05 09:16:16;;;;;;;2.20;1.40;;;14.00;1.00;;;;;;5068015;28;20447;-64
2021/05/05 09:19:01;;;;;;;2.93;1.40;;;14.10;1.00;;;;;;5077751;28;20437;-63
2021/05/05 09:21:39;;;;;;;4.20;1.50;;;14.30;1.00;;;;;;5086310;28;20437;-63
2021/05/05 09:24:26;;;;;;;3.63;1.37;;;14.20;1.00;;;;;;5069255;28;20504;-63
2021/05/05 09:27:12;;;;;;;4.07;1.20;;;14.30;1.00;;;;;;5072840;28;20453;-62
2021/05/05 09:29:46;;;;;;;2.60;1.43;;;14.40;1.00;;;;;;5072472;28;20512;-62
2021/05/05 09:32:17;;;;;;;2.20;1.43;;;14.20;1.00;;;;;;5080706;28;20534;-62
2021/05/05 09:34:48;;;;;;;4.20;1.50;;;14.10;1.00;;;;;;5075810;28;20820;-64
2021/05/05 09:37:14;;;;;;;1.87;1.33;;;14.40;1.00;;;;;;5073056;28;20429;-63
2021/05/05 09:39:40;;;;;;;2.60;1.00;;;14.50;1.00;;;;;;5075815;28;20437;-63
2021/05/05 09:42:26;;;;;;;2.63;1.60;;;15.00;1.00;;;;;;5077142;28;20917;-63
2021/05/05 09:44:53;;;;;;;2.20;1.30;;;15.10;1.00;;;;;;5072496;28;20529;-64
2021/05/05 09:47:18;;;;;;;3.80;1.10;;;14.80;1.00;;;;;;5072495;28;20725;-62
2021/05/05 09:49:45;;;;;;;2.50;1.80;;;;;;;;;;5070820;28;21006;-63
2021/05/05 09:52:15;;;;;;;2.17;1.47;;;14.20;1.00;;;;;;5078647;28;20503;-62
2021/05/05 09:54:58;;;;;;;1.30;1.20;;;17.70;1.00;;;;;;5081989;28;20426;-62
2021/05/05 09:57:28;;;;;;;3.43;1.60;;;13.60;1.00;;;;;;5078804;28;20945;-62
2021/05/05 10:00:14;;;;;;;3.07;1.40;;;13.90;1.00;;;;;;5076186;28;20871;-62
2021/05/05 10:02:48;;;;;;;1.73;1.40;;;14.30;1.00;;;;;;5080312;28;20445;-62
2021/05/05 10:05:15;;;;;;;2.77;1.50;;;14.30;1.00;;;;;;5084630;28;20790;-62
2021/05/05 10:07:58;;;;;;;4.30;1.90;;;14.00;1.00;;;;;;5092118;28;20559;-62
2021/05/05 10:10:29;;;;;;;2.40;1.30;;;14.30;1.00;;;;;;5081120;28;20433;-61
2021/05/05 10:12:58;;;;;;;2.20;1.60;;;13.90;1.00;;;;;;5077417;28;20433;-62
2021/05/05 10:15:24;;;;;;;3.50;1.27;;;14.10;1.00;;;;;;5071935;28;23328;-61
2021/05/05 10:17:51;;;;;;;2.60;1.33;;;14.10;1.00;;;;;;5081211;28;20516;-62
2021/05/05 10:20:20;;;;;;;2.93;2.10;;;14.20;1.00;;;;;;5071200;28;20485;-61
2021/05/05 10:22:46;;;;;;;2.50;1.50;;;14.70;1.00;;;;;;5071940;28;20434;-62
2021/05/05 10:25:17;;;;;;;1.57;1.47;;;14.30;1.00;;;;;;5082061;28;20848;-61
2021/05/05 10:27:43;;;;;;;4.03;1.53;;;14.60;1.00;;;;;;5079190;28;20203;-61
2021/05/05 10:30:11;;;;;;;1.67;1.27;;;15.10;1.00;;;;;;5077998;28;20534;-62
2021/05/05 10:32:40;;;;;;;4.67;1.60;;;15.60;1.00;;;;;;5079004;28;20624;-61
2021/05/05 10:35:09;;;;;;;4.13;1.70;;;15.90;1.00;;;;;;5071470;28;20433;-62
2021/05/05 10:37:44;;;;;;;3.90;1.33;;;15.90;1.00;;;;;;5076712;28;20444;-62
2021/05/05 10:40:27;;;;;;;2.17;1.60;;;15.60;1.00;;;;;;5085753;28;20441;-63
2021/05/05 10:42:52;;;;;;;1.87;1.63;;;15.60;1.00;;;;;;5071623;28;20442;-62
2021/05/05 10:45:45;;;;;;;2.87;1.97;;;15.90;1.00;;;;;;5078965;28;20436;-62
2021/05/05 10:48:15;;;;;;;3.40;1.67;;;15.90;1.00;;;;;;5071648;28;20215;-61
2021/05/05 10:50:58;;;;;;;3.77;1.30;;;15.30;1.00;;;;;;5070813;28;20440;-62
2021/05/05 10:53:50;;;;;;;4.40;1.73;;;15.10;1.00;;;;;;5071261;28;20457;-62
2021/05/05 10:56:34;;;;;;;3.07;1.23;;;14.80;1.00;;;;;;5089518;28;20472;-62
2021/05/05 10:59:01;;;;;;;3.00;1.23;;;14.30;1.00;;;;;;5071479;28;20437;-62
2021/05/05 11:01:46;;;;;;;5.00;1.67;;;14.10;1.00;;;;;;5071006;28;20437;-63
2021/05/05 11:04:15;;;;;;;3.33;1.70;;;14.20;1.00;;;;;;5069086;28;20433;-62
2021/05/05 11:06:53;;;;;;;4.60;1.87;;;13.90;1.00;;;;;;5082423;28;20449;-61
2021/05/05 11:09:19;;;;;;;1.40;1.27;;;14.10;1.00;;;;;;5088052;28;20432;-61
2021/05/05 11:11:50;;;;;;;4.00;1.10;;;14.10;1.00;;;;;;5067905;28;20438;-60
2021/05/05 11:14:27;;;;;;;4.07;1.50;;;14.30;1.00;;;;;;5068696;28;20466;-62
2021/05/05 11:16:59;;;;;;;3.80;1.47;;;14.30;1.00;;;;;;5078156;28;20179;-64
2021/05/05 11:19:37;;;;;;;2.33;1.10;;;14.60;1.00;;;;;;5076808;28;20441;-63
2021/05/05 11:22:18;;;;;;;3.23;1.40;;;14.50;1.00;;;;;;5083822;28;20432;-63
2021/05/05 11:24:47;;;;;;;2.20;1.10;;;14.80;1.00;;;;;;5075053;28;20429;-63
2021/05/05 11:27:14;;;;;;;1.63;1.17;;;14.70;1.00;;;;;;5079037;28;20462;-65
2021/05/05 11:29:50;;;;;;;1.93;1.00;;;14.80;1.00;;;;;;5072511;28;20465;-63
2021/05/05 11:32:26;;;;;;;1.87;1.27;;;15.10;1.00;;;;;;5071348;28;20444;-65
2021/05/05 11:34:52;;;;;;;2.73;1.00;;;15.00;1.00;;;;;;5083897;28;20481;-63
2021/05/05 11:37:20;;;;;;;1.37;0.93;;;14.80;1.00;;;;;;5076154;28;20433;-65
2021/05/05 11:39:49;;;;;;;1.60;0.93;;;14.70;1.00;;;;;;5080497;28;20445;-63
2021/05/05 11:42:17;;;;;;;1.57;1.10;;;14.80;1.00;;;;;;5068978;28;20460;-64
2021/05/05 11:44:53;;;;;;;3.13;1.10;;;14.30;1.00;;;;;;5085456;28;20433;-64
2021/05/05 11:47:28;;;;;;;2.50;1.47;;;14.20;1.00;;;;;;5079281;28;20559;-63
2021/05/05 11:49:59;;;;;;;1.63;1.27;;;13.60;1.00;;;;;;5084660;28;20904;-65
2021/05/05 11:52:28;;;;;;;1.77;1.37;;;13.00;1.00;;;;;;5085667;28;20784;-63
2021/05/05 11:55:20;;;;;;;2.70;0.87;;;12.80;1.00;;;;;;5076239;28;20441;-63
2021/05/05 11:57:54;;;;;;;2.90;1.07;;;12.70;1.00;;;;;;5076629;28;20454;-64
2021/05/05 12:00:31;;;;;;;1.30;1.00;;;12.60;1.00;;;;;;5076844;28;20810;-64
2021/05/05 12:03:05;;;;;;;2.37;0.93;;;12.90;1.00;;;;;;5080127;28;20583;-64
2021/05/05 12:05:40;;;;;;;3.13;0.80;;;13.00;1.00;;;;;;5079060;28;20964;-64
2021/05/05 12:08:14;;;;;;;2.20;1.10;;;13.80;1.00;;;;;;5073468;28;20508;-64
2021/05/05 12:10:48;;;;;;;0.80;0.80;;;13.60;1.00;;;;;;5077313;28;20793;-63
2021/05/05 12:13:32;;;;;;;2.17;1.00;;;13.80;1.00;;;;;;5079964;28;20440;-64
2021/05/05 12:16:07;;;;;;;1.03;0.87;;;13.90;1.00;;;;;;5085002;28;20788;-64
2021/05/05 12:18:36;;;;;;;1.20;1.00;;;14.00;1.00;;;;;;5071879;28;20461;-64
2021/05/05 12:21:09;;;;;;;2.47;0.90;;;13.80;1.00;;;;;;5078378;28;20428;-64
2021/05/05 12:23:41;;;;;;;3.03;1.03;;;14.10;1.00;;;;;;5072594;28;20436;-64
2021/05/05 12:26:26;;;;;;;1.10;1.00;;;14.60;1.00;;;;;;5084820;28;20832;-64
2021/05/05 12:28:54;;;;;;;3.80;1.13;;;14.90;1.00;;;;;;5085829;28;20481;-64
2021/05/05 12:31:22;;;;;;;1.60;1.17;;;16.20;1.00;;;;;;5082092;28;20906;-64
2021/05/05 12:33:48;;;;;;;0.90;0.80;;;15.10;1.00;;;;;;5082451;28;20462;-63
2021/05/05 12:36:22;;;;;;;1.80;1.10;;;15.10;1.00;;;;;;5076153;28;20433;-64
2021/05/05 12:38:50;;;;;;;0.93;0.80;;;15.20;1.00;;;;;;5077947;28;20480;-63
2021/05/05 12:41:18;;;;;;;1.77;0.80;;;15.50;1.00;;;;;;5085661;28;20464;-65
2021/05/05 12:43:48;;;;;;;1.80;0.90;;;15.60;1.00;;;;;;5077945;28;20524;-63
2021/05/05 12:46:31;;;;;;;1.70;1.33;;;15.70;1.00;;;;;;5088859;28;20445;-64
2021/05/05 12:48:58;;;;;;;4.47;1.37;;;15.60;1.00;;;;;;5093211;28;20425;-64
2021/05/05 12:51:25;;;;;;;6.30;1.80;;;15.30;1.00;;;;;;5081449;28;20463;-63
2021/05/05 12:53:59;;;;;;;6.70;2.40;;;14.20;1.00;;;;;;5079772;28;20788;-63
2021/05/05 12:56:43;;;;;;;6.30;1.80;;;12.30;1.00;;;;;;5086501;28;20925;-64
2021/05/05 12:59:11;;;;;;;6.83;2.00;;;11.20;1.00;;;;;;5080751;28;20539;-64
2021/05/05 13:01:36;;;;;;;1.20;1.10;;;11.00;1.00;;;;;;5074956;28;20957;-64
2021/05/05 13:04:03;;;;;;;2.30;1.00;;;11.10;1.00;;;;;;5073704;28;20447;-64
2021/05/05 13:06:43;;;;;;;1.80;1.07;;;11.00;1.00;;;;;;5082541;28;20692;-64
2021/05/05 13:09:20;;;;;;;1.63;0.90;;;11.40;1.00;;;;;;5073046;28;20798;-63
2021/05/05 13:11:52;;;;;;;2.70;0.90;;;11.80;1.00;;;;;;5086186;28;20430;-63